Terminal Aerodrome Forecast
Issued by NWS

Home | Current Version | Previous Version | Text Only | Print | Product List | Glossary On
Versions: 1 2 3 4 5 6 7 8 9 10 11 12 13 14 15 16 17 18 19 20 21 22 23
000
FTUS43 KDMX 251728
TAFMCW
TAF
KMCW 251728Z 2518/2618 31020G30KT P6SM BKN035
     FM252300 31013KT P6SM SCT040
     FM260100 31010KT P6SM FEW080
     FM260800 26006KT P6SM VCSH OVC060
     FM260900 28005KT 5SM -SHRA OVC035
     FM261200 33011KT P6SM SCT040 SCT150=

USA.gov is the U.S. government's official web portal to all federal, state and local government web resources and services.